PrinceSS Rawya — 9LU2572 — position and weather

sailwx.info

Track history (hours):
 
Tides and Currents Weather Stations Pressure Air Temp Water Temp Dewpoint Dewpoint Depression Visibility Wind Speed Wind Dir Waves Ship Positions

PrinceSS Rawya

Last reported at 2018-Jul-17 12:57 UTC. Time now 2018-Jul-17 17:09 UTC.
Position N 40°04' E 025°38'.

Length 107 m; draft 6 m.

Type: Ship. MMSI: 667001769.

Date/timePositionNaut miles runAvg speedWind from/ knotsBaromVisibWave heightAir tempDewpointWater temp
2018-Jul-17 12:57N 40°04' E 025°38'4 8.3
2018-Jul-17 12:30N 40°08' E 025°38'5 8.6
2018-Jul-17 11:55N 40°13' E 025°40'3 8.6
2018-Jul-17 11:30N 40°16' E 025°41'12 8.7
2018-Jul-17 10:11N 40°27' E 025°46'4 8.5
2018-Jul-17 09:46N 40°31' E 025°47'2 9.2
2018-Jul-17 09:30N 40°33' E 025°48'5 9.6
2018-Jul-17 09:00N 40°38' E 025°50'5 9.6
2018-Jul-17 08:29N 40°43' E 025°52'5 9.1
2018-Jul-17 07:53N 40°48' E 025°54'3 7.2
2018-Jul-17 07:30N 40°50' E 025°53'  
2018-Jul-12 03:07N 40°48' E 025°53'3 0.6
2018-Jul-11 22:15N 40°46' E 025°53'3 9.2
2018-Jul-11 21:58N 40°43' E 025°52'4 9.1
2018-Jul-11 21:28N 40°39' E 025°50'4 9.0
2018-Jul-11 21:00N 40°35' E 025°48'4 9.0
2018-Jul-11 20:30N 40°30' E 025°47'4 8.8
2018-Jul-11 20:00N 40°26' E 025°45'7 8.7
2018-Jul-11 19:14N 40°20' E 025°42'2 9.1
2018-Jul-11 19:00N 40°18' E 025°42'5 9.1
2018-Jul-11 18:30N 40°13' E 025°40'10 8.9
2018-Jul-11 17:23N 40°04' E 025°39'3 8.9
2018-Jul-11 17:00N 40°00' E 025°39'5 8.9
2018-Jul-11 16:27N 39°55' E 025°39'4 9.0
2018-Jul-11 15:58N 39°51' E 025°40'  
2018-Jul-08 17:10N 35°47' E 028°44'65 3.1
2018-Jul-07 20:16N 35°39' E 030°04'14 9.1
2018-Jul-07 18:45N 35°29' E 030°15'2 9.0
2018-Jul-07 18:30N 35°27' E 030°16'4 8.9
2018-Jul-07 18:00N 35°23' E 030°20'4 8.7
2018-Jul-07 17:30N 35°21' E 030°24'5 9.0
2018-Jul-07 17:00N 35°19' E 030°29'5 8.9
2018-Jul-07 16:24N 35°17' E 030°35'  
Track history (hours):
 
Tides and Currents Weather Stations Pressure Air Temp Water Temp Dewpoint Dewpoint Depression Visibility Wind Speed Wind Dir Waves Ship Positions

PrinceSS Rawya

Last reported at 2018-Jul-17 12:57 UTC. Time now 2018-Jul-17 17:09 UTC.
Position N 40°04' E 025°38'.

Length 107 m; draft 6 m.

Type: Ship. MMSI: 667001769.

Date/timePositionNaut miles runAvg speedWind from/ knotsBaromVisibWave heightAir tempDewpointWater temp
2018-Jul-17 12:57N 40°04' E 025°38'4 8.3
2018-Jul-17 12:30N 40°08' E 025°38'5 8.6
2018-Jul-17 11:55N 40°13' E 025°40'3 8.6
2018-Jul-17 11:30N 40°16' E 025°41'12 8.7
2018-Jul-17 10:11N 40°27' E 025°46'4 8.5
2018-Jul-17 09:46N 40°31' E 025°47'2 9.2
2018-Jul-17 09:30N 40°33' E 025°48'5 9.6
2018-Jul-17 09:00N 40°38' E 025°50'5 9.6
2018-Jul-17 08:29N 40°43' E 025°52'5 9.1
2018-Jul-17 07:53N 40°48' E 025°54'3 7.2
2018-Jul-17 07:30N 40°50' E 025°53'  
2018-Jul-12 03:07N 40°48' E 025°53'3 0.6
2018-Jul-11 22:15N 40°46' E 025°53'3 9.2
2018-Jul-11 21:58N 40°43' E 025°52'4 9.1
2018-Jul-11 21:28N 40°39' E 025°50'4 9.0
2018-Jul-11 21:00N 40°35' E 025°48'4 9.0
2018-Jul-11 20:30N 40°30' E 025°47'4 8.8
2018-Jul-11 20:00N 40°26' E 025°45'7 8.7
2018-Jul-11 19:14N 40°20' E 025°42'2 9.1
2018-Jul-11 19:00N 40°18' E 025°42'5 9.1
2018-Jul-11 18:30N 40°13' E 025°40'10 8.9
2018-Jul-11 17:23N 40°04' E 025°39'3 8.9
2018-Jul-11 17:00N 40°00' E 025°39'5 8.9
2018-Jul-11 16:27N 39°55' E 025°39'4 9.0
2018-Jul-11 15:58N 39°51' E 025°40'  
2018-Jul-08 17:10N 35°47' E 028°44'65 3.1
2018-Jul-07 20:16N 35°39' E 030°04'14 9.1
2018-Jul-07 18:45N 35°29' E 030°15'2 9.0
2018-Jul-07 18:30N 35°27' E 030°16'4 8.9
2018-Jul-07 18:00N 35°23' E 030°20'4 8.7
2018-Jul-07 17:30N 35°21' E 030°24'5 9.0
2018-Jul-07 17:00N 35°19' E 030°29'5 8.9
2018-Jul-07 16:24N 35°17' E 030°35'  

Dump ship's entire track history